createdAt,value
2018-08-19T00:00:24.203Z,95.10
2018-08-19T00:02:59.649Z,95.20
2018-08-19T00:05:28.013Z,95.10
2018-08-19T00:07:56.348Z,95.20
2018-08-19T00:10:40.037Z,95.00
2018-08-19T00:13:09.847Z,95.20
2018-08-19T00:15:39.088Z,95.40
2018-08-19T00:18:08.952Z,95.30
2018-08-19T00:20:37.322Z,95.50
2018-08-19T00:23:05.818Z,95.50
2018-08-19T00:25:37.453Z,95.60
2018-08-19T00:28:08.265Z,95.50
2018-08-19T00:30:36.596Z,95.40
2018-08-19T00:33:05.182Z,95.30
2018-08-19T00:35:33.547Z,95.50
2018-08-19T00:38:02.130Z,95.40
2018-08-19T00:40:30.545Z,95.30
2018-08-19T00:42:59.300Z,95.50
2018-08-19T00:45:27.901Z,95.60
2018-08-19T00:47:56.244Z,95.50
2018-08-19T00:50:25.359Z,95.50
2018-08-19T00:52:54.389Z,95.50
2018-08-19T00:55:22.965Z,95.60
2018-08-19T00:57:58.801Z,95.60
2018-08-19T01:00:28.304Z,95.60
2018-08-19T01:02:56.685Z,95.60
2018-08-19T01:05:25.013Z,95.50
2018-08-19T01:07:53.317Z,95.40
2018-08-19T01:10:21.616Z,95.50
2018-08-19T01:12:49.932Z,95.70
2018-08-19T01:15:18.310Z,95.90
2018-08-19T01:17:46.697Z,96.00
2018-08-19T01:20:19.805Z,95.80
2018-08-19T01:22:48.267Z,95.90
2018-08-19T01:25:16.837Z,96.10
2018-08-19T01:27:45.292Z,96.00
2018-08-19T01:30:19.323Z,96.00
2018-08-19T01:32:47.752Z,96.10
2018-08-19T01:35:16.229Z,95.80
2018-08-19T01:37:44.516Z,95.90
2018-08-19T01:40:17.583Z,96.00
2018-08-19T01:42:46.600Z,95.70
2018-08-19T01:45:14.909Z,95.90
2018-08-19T01:47:43.213Z,96.00
2018-08-19T01:50:15.292Z,95.90
2018-08-19T01:52:44.221Z,95.70
2018-08-19T01:55:12.525Z,95.80
2018-08-19T01:57:45.277Z,95.70
2018-08-19T02:00:14.268Z,95.80
2018-08-19T02:02:55.142Z,95.80
2018-08-19T02:05:24.023Z,95.90
2018-08-19T02:07:54.249Z,95.90
2018-08-19T02:10:23.617Z,95.80
2018-08-19T02:12:52.955Z,95.90
2018-08-19T02:15:22.052Z,95.90
2018-08-19T02:17:56.988Z,95.90
2018-08-19T02:20:29.822Z,95.90
2018-08-19T02:23:06.272Z,95.90
2018-08-19T02:25:37.892Z,95.90
2018-08-19T02:28:07.555Z,96.20
2018-08-19T02:30:40.402Z,96.10
2018-08-19T02:33:08.682Z,96.20
2018-08-19T02:35:37.005Z,96.20
2018-08-19T02:38:05.327Z,96.10
2018-08-19T02:40:33.664Z,96.30
2018-08-19T02:43:02.057Z,96.40
2018-08-19T02:45:30.373Z,96.40
2018-08-19T02:47:58.697Z,96.30
2018-08-19T02:50:27.027Z,96.40
2018-08-19T02:52:55.333Z,96.40
2018-08-19T02:55:25.190Z,96.40
2018-08-19T02:57:57.778Z,96.40
2018-08-19T03:00:26.084Z,96.50
2018-08-19T03:02:54.562Z,96.50
2018-08-19T03:05:22.843Z,96.60
2018-08-19T03:07:51.130Z,96.70
2018-08-19T03:10:19.416Z,96.70
2018-08-19T03:12:47.724Z,96.60
2018-08-19T03:15:16.350Z,96.60
2018-08-19T03:17:47.775Z,96.80
2018-08-19T03:20:16.094Z,97.00
2018-08-19T03:22:44.388Z,97.10
2018-08-19T03:25:12.834Z,97.20
2018-08-19T03:27:41.932Z,97.20
2018-08-19T03:30:11.830Z,97.10
2018-08-19T03:32:41.877Z,97.10
2018-08-19T03:35:16.029Z,97.10
2018-08-19T03:37:44.614Z,97.20
2018-08-19T03:40:13.017Z,97.30
2018-08-19T03:42:41.288Z,97.30
2018-08-19T03:45:14.944Z,97.20
2018-08-19T03:47:43.233Z,97.30
2018-08-19T03:50:16.889Z,97.40
2018-08-19T03:52:45.479Z,97.50
2018-08-19T03:55:20.060Z,97.50
2018-08-19T03:57:48.846Z,97.50
2018-08-19T04:00:18.381Z,97.70
2018-08-19T04:02:46.715Z,97.60
2018-08-19T04:05:15.013Z,97.50
2018-08-19T04:07:44.191Z,97.50
2018-08-19T04:10:12.900Z,97.60
2018-08-19T04:12:41.213Z,97.80
2018-08-19T04:15:10.307Z,97.60
2018-08-19T04:17:38.581Z,97.90
2018-08-19T04:20:07.376Z,98.00
2018-08-19T04:22:35.669Z,98.10
2018-08-19T04:25:04.046Z,98.10
2018-08-19T04:27:32.332Z,98.00
2018-08-19T04:30:00.624Z,97.90
2018-08-19T04:32:31.808Z,97.90
2018-08-19T04:35:00.692Z,98.10
2018-08-19T04:37:29.883Z,97.80
2018-08-19T04:39:59.569Z,97.80
2018-08-19T04:42:27.836Z,97.70
2018-08-19T04:44:56.141Z,97.80
2018-08-19T04:47:28.697Z,97.80
2018-08-19T04:49:57.012Z,97.90
2018-08-19T04:52:25.592Z,97.80
2018-08-19T04:54:55.102Z,97.80
2018-08-19T04:57:23.413Z,97.80
2018-08-19T04:59:51.717Z,98.00
2018-08-19T05:02:20.828Z,97.80
2018-08-19T05:04:49.101Z,97.50
2018-08-19T05:07:17.384Z,97.70
2018-08-19T05:09:45.773Z,97.70
2018-08-19T05:12:14.100Z,97.70
2018-08-19T05:14:42.356Z,97.80
2018-08-19T05:17:10.728Z,97.70
2018-08-19T05:19:39.034Z,97.60
2018-08-19T05:22:12.732Z,97.40
2018-08-19T05:24:41.261Z,97.60
2018-08-19T05:27:09.977Z,97.60
2018-08-19T05:29:38.391Z,97.30
2018-08-19T05:32:06.767Z,97.00
2018-08-19T05:34:36.328Z,97.10
2018-08-19T05:37:04.901Z,96.90
2018-08-19T05:39:33.249Z,97.10
2018-08-19T05:42:05.981Z,97.20
2018-08-19T05:44:36.504Z,97.00
2018-08-19T05:47:06.227Z,96.90
2018-08-19T05:49:36.116Z,96.80
2018-08-19T05:52:06.675Z,96.70
2018-08-19T05:54:39.191Z,96.60
2018-08-19T05:57:07.493Z,96.20
2018-08-19T05:59:42.515Z,96.30
2018-08-19T06:02:10.824Z,96.00
2018-08-19T06:04:39.113Z,95.90
2018-08-19T06:07:07.451Z,95.40
2018-08-19T06:09:36.151Z,95.30
2018-08-19T06:12:05.042Z,95.00
2018-08-19T06:14:33.538Z,95.00
2018-08-19T06:17:04.105Z,94.70
2018-08-19T06:19:33.381Z,94.20
2018-08-19T06:22:01.787Z,94.20
2018-08-19T06:24:29.994Z,93.70
2018-08-19T06:26:58.257Z,94.00
2018-08-19T06:29:45.003Z,93.70
2018-08-19T06:32:18.973Z,93.90
2018-08-19T06:34:47.382Z,93.40
2018-08-19T06:37:15.567Z,93.00
2018-08-19T06:39:44.098Z,92.80
2018-08-19T06:42:12.720Z,92.50
2018-08-19T06:44:41.105Z,92.50
2018-08-19T06:47:09.822Z,92.30
2018-08-19T06:49:43.279Z,92.60
2018-08-19T06:52:12.096Z,92.30
2018-08-19T06:54:40.404Z,92.50
2018-08-19T06:57:09.365Z,92.40
2018-08-19T06:59:37.813Z,91.90
2018-08-19T07:02:06.622Z,91.80
2018-08-19T07:04:38.229Z,92.00
2018-08-19T07:07:08.229Z,91.70
2018-08-19T07:09:36.637Z,91.90
2018-08-19T07:12:08.160Z,91.60
2018-08-19T07:14:36.445Z,90.90
2018-08-19T07:17:05.025Z,90.30
2018-08-19T07:19:34.656Z,91.10
2018-08-19T07:22:05.129Z,90.60
2018-08-19T07:24:34.430Z,90.70
2018-08-19T07:27:02.729Z,90.50
2018-08-19T07:29:31.744Z,90.20
2018-08-19T07:32:00.033Z,90.00
2018-08-19T07:34:28.407Z,90.00
2018-08-19T07:36:57.690Z,89.90
2018-08-19T07:39:26.505Z,89.70
2018-08-19T07:41:54.867Z,89.50
2018-08-19T07:44:23.160Z,88.50
2018-08-19T07:46:53.341Z,87.70
2018-08-19T07:49:21.648Z,86.90
2018-08-19T07:51:49.933Z,86.20
2018-08-19T07:54:18.228Z,86.70
2018-08-19T07:56:46.523Z,86.00
2018-08-19T07:59:15.609Z,84.90
2018-08-19T08:01:43.885Z,84.40
2018-08-19T08:04:12.181Z,83.30
2018-08-19T08:06:40.468Z,82.90
2018-08-19T08:09:09.943Z,82.70
2018-08-19T08:11:38.311Z,83.90
2018-08-19T08:14:06.748Z,84.20
2018-08-19T08:16:40.016Z,83.90
2018-08-19T08:19:08.320Z,79.40
2018-08-19T08:21:36.904Z,81.00
2018-08-19T08:24:06.051Z,81.10
2018-08-19T08:26:36.355Z,81.60
2018-08-19T08:29:05.525Z,81.10
2018-08-19T08:31:41.555Z,80.80
2018-08-19T08:34:09.928Z,78.80
2018-08-19T08:36:38.260Z,79.10
2018-08-19T08:39:07.472Z,78.00
2018-08-19T08:41:35.749Z,80.10
2018-08-19T08:44:04.117Z,78.30
2018-08-19T08:46:32.440Z,78.20
2018-08-19T08:49:00.725Z,77.20
2018-08-19T08:51:29.028Z,75.40
2018-08-19T08:53:58.062Z,74.70
2018-08-19T08:56:26.485Z,75.30
2018-08-19T08:58:54.729Z,76.30
2018-08-19T09:01:23.010Z,77.30
2018-08-19T09:03:51.292Z,76.60
2018-08-19T09:06:24.888Z,75.60
2018-08-19T09:08:53.204Z,75.00
2018-08-19T09:11:21.476Z,75.40
2018-08-19T09:13:49.789Z,76.70
2018-08-19T09:16:18.216Z,73.70
2018-08-19T09:18:46.649Z,75.00
2018-08-19T09:21:15.241Z,73.60
2018-08-19T09:23:43.542Z,73.90
2018-08-19T09:26:11.854Z,74.10
2018-08-19T09:28:40.148Z,77.20
2018-08-19T09:31:09.274Z,74.60
2018-08-19T09:33:37.617Z,73.30
2018-08-19T09:36:05.921Z,72.40
2018-08-19T09:38:34.262Z,73.50
2018-08-19T09:41:02.609Z,73.10
2018-08-19T09:43:31.431Z,72.70
2018-08-19T09:45:59.740Z,73.50
2018-08-19T09:48:28.009Z,71.80
2018-08-19T09:51:01.147Z,71.90
2018-08-19T09:53:29.466Z,72.70
2018-08-19T09:56:03.172Z,71.50
2018-08-19T09:58:31.457Z,71.40
2018-08-19T10:01:05.211Z,71.90
2018-08-19T10:03:33.493Z,71.90
2018-08-19T10:06:01.886Z,69.90
2018-08-19T10:08:30.221Z,70.30
2018-08-19T10:10:58.559Z,68.70
2018-08-19T10:13:26.852Z,70.50
2018-08-19T10:15:55.126Z,68.80
2018-08-19T10:18:23.437Z,69.90
2018-08-19T10:20:51.740Z,67.80
2018-08-19T10:23:23.596Z,68.40
2018-08-19T10:25:52.357Z,69.00
2018-08-19T10:28:20.734Z,69.80
2018-08-19T10:30:55.231Z,67.30
2018-08-19T10:33:23.505Z,69.40
2018-08-19T10:35:52.101Z,67.30
2018-08-19T10:38:20.422Z,68.20
2018-08-19T10:40:54.712Z,67.20
2018-08-19T10:43:23.073Z,66.40
2018-08-19T10:45:51.621Z,66.20
2018-08-19T10:48:19.922Z,66.00
2018-08-19T10:50:48.202Z,65.90
2018-08-19T10:53:22.023Z,65.40
2018-08-19T10:55:50.391Z,64.30
2018-08-19T10:58:18.681Z,61.60
2018-08-19T11:00:47.027Z,62.30
2018-08-19T11:03:18.279Z,61.10
2018-08-19T11:05:47.309Z,61.60
2018-08-19T11:08:15.624Z,59.40
2018-08-19T11:10:43.921Z,61.20
2018-08-19T11:13:12.305Z,60.30
2018-08-19T11:15:43.582Z,61.00
2018-08-19T11:18:23.125Z,61.20
2018-08-19T11:20:54.235Z,60.50
2018-08-19T11:23:26.648Z,59.30
2018-08-19T11:25:55.744Z,58.50
2018-08-19T11:28:35.385Z,59.90
2018-08-19T11:31:03.750Z,57.20
2018-08-19T11:33:37.374Z,58.40
2018-08-19T11:36:05.767Z,59.40
2018-08-19T11:38:34.082Z,57.60
2018-08-19T11:41:04.441Z,57.30
2018-08-19T11:43:34.641Z,54.60
2018-08-19T11:46:03.678Z,55.20
2018-08-19T11:48:31.981Z,53.20
2018-08-19T11:51:00.721Z,55.20
2018-08-19T11:53:29.274Z,54.20
2018-08-19T11:55:57.761Z,53.90
2018-08-19T11:58:35.586Z,54.90
2018-08-19T12:01:05.324Z,55.20
2018-08-19T12:03:49.933Z,55.50
2018-08-19T12:06:18.221Z,54.50
2018-08-19T12:08:46.486Z,54.40
2018-08-19T12:11:18.104Z,55.10
2018-08-19T12:13:50.857Z,56.90
2018-08-19T12:16:20.953Z,56.80
2018-08-19T12:18:58.710Z,54.30
2018-08-19T12:21:27.061Z,55.40
2018-08-19T12:24:11.952Z,55.60
2018-08-19T12:26:42.545Z,55.00
2018-08-19T12:29:10.962Z,54.20
2018-08-19T12:31:39.224Z,54.00
2018-08-19T12:34:07.534Z,56.00
2018-08-19T12:36:35.869Z,55.20
2018-08-19T12:39:05.665Z,55.80
2018-08-19T12:41:38.284Z,55.90
2018-08-19T12:44:06.661Z,56.30
2018-08-19T12:46:34.945Z,55.80
2018-08-19T12:49:03.239Z,55.80
2018-08-19T12:51:31.593Z,57.20
2018-08-19T12:53:59.905Z,57.80
2018-08-19T12:56:28.229Z,58.60
2018-08-19T12:58:56.516Z,57.40
2018-08-19T13:01:24.845Z,57.00
2018-08-19T13:03:53.501Z,56.90
2018-08-19T13:06:21.829Z,57.60
2018-08-19T13:08:50.104Z,56.80
2018-08-19T13:11:18.364Z,55.40
2018-08-19T13:16:27.183Z,54.50
2018-08-19T13:18:55.465Z,53.60
2018-08-19T13:21:26.148Z,54.30
2018-08-19T13:23:54.441Z,54.50
2018-08-19T13:26:22.725Z,54.30
2018-08-19T13:28:55.449Z,54.90
2018-08-19T13:31:28.820Z,54.50
2018-08-19T13:33:57.117Z,55.40
2018-08-19T13:36:25.617Z,55.70
2018-08-19T13:38:53.909Z,53.90
2018-08-19T13:41:22.217Z,55.60
2018-08-19T13:43:50.490Z,54.80
2018-08-19T13:46:18.789Z,56.00
2018-08-19T13:48:47.060Z,53.70
2018-08-19T13:51:15.356Z,54.90
2018-08-19T13:53:43.680Z,52.50
2018-08-19T13:56:11.968Z,53.00
2018-08-19T13:58:40.275Z,53.80
2018-08-19T14:01:08.541Z,52.90
2018-08-19T14:03:36.821Z,52.90
2018-08-19T14:06:05.130Z,53.80
2018-08-19T14:08:33.415Z,52.50
2018-08-19T14:11:01.698Z,51.30
2018-08-19T14:13:29.956Z,51.50
2018-08-19T14:15:58.238Z,51.40
2018-08-19T14:18:26.544Z,51.80
2018-08-19T14:20:54.864Z,50.70
2018-08-19T14:23:23.302Z,52.90
2018-08-19T14:25:51.604Z,50.60
2018-08-19T14:28:19.898Z,50.60
2018-08-19T14:30:48.250Z,50.50
2018-08-19T14:33:16.496Z,50.60
2018-08-19T14:35:44.784Z,50.80
2018-08-19T14:38:13.149Z,50.80
2018-08-19T14:40:41.429Z,50.60
2018-08-19T14:43:09.702Z,50.20
2018-08-19T14:45:37.977Z,49.50
2018-08-19T14:48:06.266Z,49.90
2018-08-19T14:50:34.552Z,49.70
2018-08-19T14:53:02.848Z,49.30
2018-08-19T14:55:31.138Z,50.50
2018-08-19T14:57:59.409Z,50.30
2018-08-19T15:00:27.704Z,51.50
2018-08-19T15:02:55.985Z,50.20
2018-08-19T15:05:24.271Z,50.70
2018-08-19T15:07:52.540Z,48.60
2018-08-19T15:10:23.686Z,49.90
2018-08-19T15:12:52.329Z,48.20
2018-08-19T15:15:20.649Z,49.10
2018-08-19T15:17:59.031Z,49.60
2018-08-19T15:20:31.562Z,50.30
2018-08-19T15:23:11.265Z,48.80
2018-08-19T15:25:39.582Z,48.40
2018-08-19T15:28:07.853Z,48.30
2018-08-19T15:30:39.026Z,49.40
2018-08-19T15:33:07.761Z,49.20
2018-08-19T15:35:35.780Z,49.60
2018-08-19T15:38:04.113Z,50.50
2018-08-19T15:40:40.084Z,48.90
2018-08-19T15:43:08.977Z,48.40
2018-08-19T15:45:37.261Z,47.00
2018-08-19T15:48:06.285Z,47.80
2018-08-19T15:50:34.668Z,47.90
2018-08-19T15:53:04.886Z,47.30
2018-08-19T15:55:33.162Z,46.60
2018-08-19T15:58:02.914Z,46.80
2018-08-19T16:00:34.208Z,47.30
2018-08-19T16:03:02.509Z,47.00
2018-08-19T16:05:30.784Z,47.90
2018-08-19T16:07:59.078Z,46.60
2018-08-19T16:10:27.389Z,46.90
2018-08-19T16:12:55.782Z,45.80
2018-08-19T16:15:26.181Z,45.10
2018-08-19T16:17:55.808Z,46.80
2018-08-19T16:20:24.261Z,45.20
2018-08-19T16:22:52.995Z,45.30
2018-08-19T16:25:22.053Z,45.40
2018-08-19T16:27:51.257Z,45.50
2018-08-19T16:30:19.953Z,45.50
2018-08-19T16:32:48.249Z,44.30
2018-08-19T16:35:16.544Z,44.40
2018-08-19T16:37:44.868Z,43.90
2018-08-19T16:40:13.676Z,44.00
2018-08-19T16:42:42.449Z,43.00
2018-08-19T16:45:11.912Z,42.40
2018-08-19T16:47:40.246Z,42.40
2018-08-19T16:50:11.106Z,42.70
2018-08-19T16:52:39.337Z,43.10
2018-08-19T16:55:08.221Z,42.70
2018-08-19T16:57:36.501Z,44.80
2018-08-19T17:00:05.877Z,43.80
2018-08-19T17:02:34.218Z,43.50
2018-08-19T17:05:02.505Z,42.60
2018-08-19T17:07:30.808Z,43.40
2018-08-19T17:09:59.164Z,43.30
2018-08-19T17:12:27.385Z,44.80
2018-08-19T17:14:55.668Z,41.00
2018-08-19T17:17:23.941Z,38.10
2018-08-19T17:19:52.201Z,38.30
2018-08-19T17:22:20.560Z,36.70
2018-08-19T17:24:48.829Z,38.30
2018-08-19T17:27:17.451Z,36.30
2018-08-19T17:29:45.721Z,38.70
2018-08-19T17:32:14.051Z,36.20
2018-08-19T17:34:42.405Z,36.40
2018-08-19T17:37:10.733Z,36.40
2018-08-19T17:39:39.170Z,36.20
2018-08-19T17:42:07.361Z,35.60
2018-08-19T17:44:35.702Z,39.00
2018-08-19T17:47:04.010Z,38.20
2018-08-19T17:49:32.353Z,36.40
2018-08-19T17:52:01.874Z,38.30
2018-08-19T17:54:31.067Z,40.00
2018-08-19T17:57:00.592Z,41.40
2018-08-19T17:59:29.031Z,42.20
2018-08-19T18:01:57.265Z,43.60
2018-08-19T18:04:34.839Z,45.40
2018-08-19T18:07:03.180Z,45.60
2018-08-19T18:09:31.490Z,45.60
2018-08-19T18:12:03.709Z,46.70
2018-08-19T18:14:32.216Z,47.20
2018-08-19T18:17:00.804Z,49.00
2018-08-19T18:19:33.150Z,48.60
2018-08-19T18:22:01.513Z,51.10
2018-08-19T18:24:29.916Z,52.50
2018-08-19T18:26:58.244Z,54.80
2018-08-19T18:29:26.550Z,53.40
2018-08-19T18:31:54.845Z,54.60
2018-08-19T18:34:23.117Z,54.60
2018-08-19T18:36:51.405Z,55.60
2018-08-19T18:39:19.692Z,55.20
2018-08-19T18:41:47.983Z,56.10
2018-08-19T18:44:16.316Z,56.80
2018-08-19T18:46:44.590Z,57.20
2018-08-19T18:49:13.346Z,58.80
2018-08-19T18:51:44.752Z,59.30
2018-08-19T18:54:20.713Z,59.80
2018-08-19T18:56:49.072Z,59.60
2018-08-19T18:59:17.336Z,59.90
2018-08-19T19:01:45.628Z,61.90
2018-08-19T19:04:13.921Z,62.60
2018-08-19T19:06:42.212Z,64.70
2018-08-19T19:09:10.626Z,66.10
2018-08-19T19:11:38.896Z,66.90
2018-08-19T19:14:16.326Z,66.70
2018-08-19T19:16:47.428Z,68.60
2018-08-19T19:19:15.732Z,69.70
2018-08-19T19:21:48.283Z,69.70
2018-08-19T19:24:19.185Z,70.00
2018-08-19T19:26:47.520Z,70.30
2018-08-19T19:29:18.762Z,70.70
2018-08-19T19:31:47.045Z,71.30
2018-08-19T19:34:15.835Z,71.10
2018-08-19T19:36:44.080Z,71.60
2018-08-19T19:39:12.413Z,71.80
2018-08-19T19:41:40.704Z,73.30
2018-08-19T19:44:22.892Z,73.30
2018-08-19T19:46:51.800Z,73.60
2018-08-19T19:49:20.548Z,74.20
2018-08-19T19:51:55.972Z,74.70
2018-08-19T19:54:24.325Z,75.60
2018-08-19T19:56:52.596Z,76.00
2018-08-19T19:59:24.153Z,76.70
2018-08-19T20:01:52.477Z,77.30
2018-08-19T20:04:20.744Z,77.10
2018-08-19T20:06:49.041Z,78.00
2018-08-19T20:09:17.346Z,78.80
2018-08-19T20:11:45.638Z,78.40
2018-08-19T20:14:13.910Z,78.40
2018-08-19T20:16:42.220Z,78.80
2018-08-19T20:19:10.488Z,79.60
2018-08-19T20:21:38.805Z,80.40
2018-08-19T20:24:07.106Z,81.00
2018-08-19T20:26:35.418Z,82.00
2018-08-19T20:29:03.964Z,81.00
2018-08-19T20:31:32.292Z,81.00
2018-08-19T20:34:00.611Z,81.70
2018-08-19T20:36:29.352Z,82.40
2018-08-19T20:38:57.660Z,82.90
2018-08-19T20:41:25.971Z,83.20
2018-08-19T20:43:54.234Z,83.70
2018-08-19T20:46:22.540Z,84.20
2018-08-19T20:48:50.832Z,84.50
2018-08-19T20:51:19.157Z,84.40
2018-08-19T20:53:47.444Z,84.30
2018-08-19T20:56:15.733Z,84.20
2018-08-19T20:58:44.005Z,84.60
2018-08-19T21:01:17.868Z,85.10
2018-08-19T21:03:46.476Z,85.90
2018-08-19T21:06:14.748Z,86.30
2018-08-19T21:08:43.041Z,86.30
2018-08-19T21:11:11.326Z,87.40
2018-08-19T21:13:39.612Z,88.00
2018-08-19T21:16:07.893Z,88.50
2018-08-19T21:18:36.168Z,88.40
2018-08-19T21:21:04.486Z,88.20
2018-08-19T21:23:32.749Z,88.00
2018-08-19T21:26:02.005Z,88.20
2018-08-19T21:28:30.279Z,88.80
2018-08-19T21:30:58.562Z,88.90
2018-08-19T21:33:26.867Z,89.40
2018-08-19T21:35:56.136Z,89.80
2018-08-19T21:38:24.416Z,89.40
2018-08-19T21:40:56.274Z,89.10
2018-08-19T21:43:29.564Z,89.20
2018-08-19T21:45:58.172Z,90.00
2018-08-19T21:48:26.452Z,90.00
2018-08-19T21:50:54.743Z,90.10
2018-08-19T21:53:23.020Z,90.00
2018-08-19T21:55:52.372Z,90.20
2018-08-19T21:58:20.707Z,90.00
2018-08-19T22:00:59.477Z,90.00
2018-08-19T22:03:33.270Z,90.10
2018-08-19T22:06:05.573Z,90.30
2018-08-19T22:08:33.908Z,90.40
2018-08-19T22:11:02.252Z,90.60
2018-08-19T22:13:30.532Z,90.60
2018-08-19T22:15:58.828Z,90.60
2018-08-19T22:18:30.321Z,90.70
2018-08-19T22:21:10.597Z,90.80
2018-08-19T22:23:44.276Z,91.00
2018-08-19T22:26:14.703Z,90.90
2018-08-19T22:28:43.284Z,91.00
2018-08-19T22:31:26.668Z,91.10
2018-08-19T22:33:56.325Z,91.20
2018-08-19T22:36:24.619Z,91.30
2018-08-19T22:38:53.692Z,91.40
2018-08-19T22:41:24.548Z,91.50
2018-08-19T22:43:53.828Z,91.60
2018-08-19T22:46:22.229Z,91.70
2018-08-19T22:48:52.085Z,91.80
2018-08-19T22:51:20.616Z,91.90
2018-08-19T22:53:50.973Z,92.00
2018-08-19T22:56:19.966Z,91.50
2018-08-19T22:58:48.260Z,92.00
2018-08-19T23:01:16.573Z,92.10
2018-08-19T23:03:44.869Z,92.10
2018-08-19T23:06:13.164Z,92.20
2018-08-19T23:08:41.471Z,92.20
2018-08-19T23:11:09.760Z,92.10
2018-08-19T23:13:49.311Z,92.30
2018-08-19T23:16:18.496Z,92.20
2018-08-19T23:18:46.838Z,91.90
2018-08-19T23:21:15.128Z,91.90
2018-08-19T23:23:43.402Z,92.10
2018-08-19T23:26:11.716Z,91.90
2018-08-19T23:28:39.985Z,92.30
2018-08-19T23:31:08.348Z,92.40
2018-08-19T23:33:36.617Z,92.20
2018-08-19T23:36:04.896Z,92.10
2018-08-19T23:38:33.193Z,92.10
2018-08-19T23:41:01.476Z,92.20
2018-08-19T23:43:29.749Z,92.60
2018-08-19T23:45:58.013Z,92.60
2018-08-19T23:48:26.301Z,92.30
2018-08-19T23:50:54.585Z,92.60
2018-08-19T23:53:22.884Z,92.60
2018-08-19T23:55:51.171Z,92.80
2018-08-19T23:58:19.443Z,92.90
